createdAt,value
2023-04-17T00:00:33.159Z,37.20
2023-04-17T00:03:02.040Z,35.42
2023-04-17T00:05:29.048Z,35.75
2023-04-17T00:07:57.133Z,37.17
2023-04-17T00:10:23.857Z,38.60
2023-04-17T00:12:50.892Z,36.45
2023-04-17T00:15:17.367Z,35.97
2023-04-17T00:17:43.911Z,35.53
2023-04-17T00:20:10.925Z,39.25
2023-04-17T00:22:37.701Z,37.80
2023-04-17T00:25:04.376Z,36.28
2023-04-17T00:27:31.558Z,34.85
2023-04-17T00:29:58.538Z,33.33
2023-04-17T00:32:24.968Z,34.00
2023-04-17T00:34:55.712Z,31.15
2023-04-17T00:37:22.740Z,29.17
2023-04-17T00:39:49.673Z,29.73
2023-04-17T00:42:16.302Z,30.35
2023-04-17T00:44:42.742Z,31.40
2023-04-17T00:47:09.358Z,27.50
2023-04-17T00:49:36.257Z,29.23
2023-04-17T00:52:04.010Z,28.13
2023-04-17T00:54:31.690Z,25.33
2023-04-17T00:56:59.061Z,26.20
2023-04-17T00:59:27.117Z,27.23
2023-04-17T01:01:53.719Z,23.77
2023-04-17T01:04:20.991Z,23.00
2023-04-17T01:06:47.560Z,24.48
2023-04-17T01:09:15.077Z,23.48
2023-04-17T01:11:41.765Z,21.27
2023-04-17T01:14:08.429Z,20.70
2023-04-17T01:16:35.546Z,20.88
2023-04-17T01:19:02.241Z,19.92
2023-04-17T01:21:28.740Z,20.80
2023-04-17T01:23:55.921Z,19.88
2023-04-17T01:26:29.251Z,19.50
2023-04-17T01:28:57.583Z,17.85
2023-04-17T01:31:24.906Z,19.83
2023-04-17T01:33:54.322Z,19.25
2023-04-17T01:36:21.517Z,18.35
2023-04-17T01:38:48.234Z,19.35
2023-04-17T01:41:14.975Z,22.30
2023-04-17T01:43:45.952Z,23.40
2023-04-17T01:46:12.699Z,20.20
2023-04-17T01:48:39.537Z,19.13
2023-04-17T01:51:06.329Z,20.55
2023-04-17T01:53:33.323Z,21.08
2023-04-17T01:56:02.571Z,18.90
2023-04-17T01:58:32.625Z,18.40
2023-04-17T02:01:00.478Z,16.17
2023-04-17T02:03:27.843Z,18.20
2023-04-17T02:05:54.636Z,18.70
2023-04-17T02:08:21.444Z,18.60
2023-04-17T02:10:47.955Z,17.80
2023-04-17T02:13:14.470Z,17.63
2023-04-17T02:15:41.347Z,18.75
2023-04-17T02:18:11.185Z,16.25
2023-04-17T02:20:38.381Z,17.40
2023-04-17T02:23:06.008Z,13.55
2023-04-17T02:25:32.649Z,14.07
2023-04-17T02:27:59.231Z,14.93
2023-04-17T02:30:27.353Z,14.77
2023-04-17T02:32:56.152Z,13.90
2023-04-17T02:35:23.981Z,12.80
2023-04-17T02:37:53.243Z,13.13
2023-04-17T02:40:23.204Z,14.27
2023-04-17T02:42:54.353Z,13.20
2023-04-17T02:45:21.229Z,11.18
2023-04-17T02:47:48.108Z,11.07
2023-04-17T02:50:14.716Z,12.57
2023-04-17T02:53:09.501Z,13.27
2023-04-17T02:55:36.209Z,11.98
2023-04-17T02:58:03.340Z,13.40
2023-04-17T03:00:29.827Z,12.10
2023-04-17T03:02:56.607Z,13.55
2023-04-17T03:05:24.260Z,13.65
2023-04-17T03:07:52.803Z,12.35
2023-04-17T03:10:20.652Z,10.80
2023-04-17T03:12:47.261Z,11.98
2023-04-17T03:15:14.253Z,11.68
2023-04-17T03:17:41.025Z,12.38
2023-04-17T03:20:08.866Z,11.75
2023-04-17T03:22:36.599Z,11.93
2023-04-17T03:25:04.751Z,12.55
2023-04-17T03:27:39.326Z,11.48
2023-04-17T03:30:06.652Z,13.35
2023-04-17T03:32:33.937Z,12.70
2023-04-17T03:35:01.510Z,13.80
2023-04-17T03:37:28.124Z,14.15
2023-04-17T03:39:55.678Z,14.00
2023-04-17T03:42:24.929Z,14.60
2023-04-17T03:44:52.078Z,17.02
2023-04-17T03:47:18.988Z,16.08
2023-04-17T03:49:45.782Z,15.55
2023-04-17T03:52:12.881Z,18.30
2023-04-17T03:54:39.704Z,16.50
2023-04-17T03:57:07.460Z,17.50
2023-04-17T03:59:34.160Z,16.85
2023-04-17T04:02:01.424Z,14.93
2023-04-17T04:04:30.639Z,12.88
2023-04-17T04:07:05.681Z,13.25
2023-04-17T04:09:33.128Z,14.73
2023-04-17T04:12:00.122Z,14.88
2023-04-17T04:14:27.673Z,14.73
2023-04-17T04:16:54.198Z,14.48
2023-04-17T04:19:20.717Z,15.55
2023-04-17T04:21:47.809Z,13.55
2023-04-17T04:24:14.699Z,12.82
2023-04-17T04:26:42.569Z,13.77
2023-04-17T04:29:11.611Z,12.30
2023-04-17T04:31:53.460Z,12.48
2023-04-17T04:34:25.788Z,12.30
2023-04-17T04:36:52.325Z,10.55
2023-04-17T04:39:37.992Z,11.43
2023-04-17T04:42:09.818Z,10.52
2023-04-17T04:44:54.346Z,10.50
2023-04-17T04:47:23.086Z,12.43
2023-04-17T04:49:51.075Z,11.70
2023-04-17T04:52:20.340Z,11.82
2023-04-17T04:54:48.732Z,8.75
2023-04-17T04:57:15.387Z,11.20
2023-04-17T04:59:46.143Z,10.75
2023-04-17T05:02:28.132Z,9.63
2023-04-17T05:04:55.816Z,8.95
2023-04-17T05:07:22.702Z,7.22
2023-04-17T05:09:50.115Z,7.28
2023-04-17T05:12:17.129Z,6.97
2023-04-17T05:14:44.553Z,8.80
2023-04-17T05:17:11.057Z,9.00
2023-04-17T05:19:38.518Z,7.07
2023-04-17T05:22:08.454Z,7.75
2023-04-17T05:24:44.456Z,6.38
2023-04-17T05:27:11.002Z,7.20
2023-04-17T05:29:37.732Z,5.60
2023-04-17T05:32:04.524Z,7.57
2023-04-17T05:34:51.318Z,7.28
2023-04-17T05:37:21.973Z,7.78
2023-04-17T05:39:48.614Z,7.47
2023-04-17T05:42:15.098Z,6.30
2023-04-17T05:44:41.790Z,6.55
2023-04-17T05:47:08.274Z,4.90
2023-04-17T05:49:36.700Z,5.85
2023-04-17T05:52:03.446Z,6.07
2023-04-17T05:54:30.373Z,7.88
2023-04-17T05:56:57.890Z,7.03
2023-04-17T05:59:25.350Z,7.78
2023-04-17T06:01:52.520Z,6.63
2023-04-17T06:04:21.930Z,6.00
2023-04-17T06:06:50.126Z,7.82
2023-04-17T06:09:16.929Z,5.55
2023-04-17T06:11:44.360Z,6.85
2023-04-17T06:14:12.120Z,6.38
2023-04-17T06:16:38.652Z,6.47
2023-04-17T06:19:05.332Z,9.07
2023-04-17T06:21:32.529Z,7.05
2023-04-17T06:24:00.475Z,8.82
2023-04-17T06:26:27.007Z,7.28
2023-04-17T06:28:54.759Z,8.18
2023-04-17T06:31:23.082Z,8.13
2023-04-17T06:33:50.933Z,7.25
2023-04-17T06:36:20.709Z,9.35
2023-04-17T06:38:49.366Z,8.00
2023-04-17T06:41:18.138Z,8.98
2023-04-17T06:43:44.901Z,9.20
2023-04-17T06:46:14.901Z,9.18
2023-04-17T06:48:41.435Z,9.52
2023-04-17T06:51:08.119Z,11.60
2023-04-17T06:53:35.042Z,12.23
2023-04-17T06:56:01.566Z,13.50
2023-04-17T06:58:28.984Z,11.93
2023-04-17T07:00:55.909Z,13.18
2023-04-17T07:03:22.517Z,13.20
2023-04-17T07:05:51.128Z,13.90
2023-04-17T07:08:19.389Z,14.88
2023-04-17T07:10:45.980Z,19.33
2023-04-17T07:13:12.503Z,17.33
2023-04-17T07:15:41.175Z,18.80
2023-04-17T07:18:07.689Z,18.58
2023-04-17T07:20:34.651Z,16.52
2023-04-17T07:23:01.536Z,14.98
2023-04-17T07:25:28.065Z,14.93
2023-04-17T07:27:57.112Z,15.77
2023-04-17T07:30:23.796Z,19.30
2023-04-17T07:32:51.400Z,19.85
2023-04-17T07:35:18.184Z,16.15
2023-04-17T07:37:45.293Z,31.42
2023-04-17T07:40:12.132Z,27.13
2023-04-17T07:42:39.121Z,21.83
2023-04-17T07:45:06.118Z,22.55
2023-04-17T07:47:32.652Z,21.17
2023-04-17T07:49:59.519Z,16.60
2023-04-17T07:52:36.611Z,17.35
2023-04-17T07:55:05.541Z,17.05
2023-04-17T07:57:34.381Z,14.57
2023-04-17T08:00:01.932Z,13.18
2023-04-17T08:02:40.437Z,17.45
2023-04-17T08:05:08.212Z,12.88
2023-04-17T08:07:37.000Z,11.60
2023-04-17T08:10:04.333Z,11.93
2023-04-17T08:12:30.833Z,9.98
2023-04-17T08:14:57.353Z,10.80
2023-04-17T08:17:27.418Z,6.82
2023-04-17T08:20:00.661Z,10.18
2023-04-17T08:22:29.091Z,12.98
2023-04-17T08:24:58.987Z,8.20
2023-04-17T08:27:25.997Z,8.45
2023-04-17T08:29:56.535Z,8.15
2023-04-17T08:32:23.107Z,9.23
2023-04-17T08:34:49.729Z,9.40
2023-04-17T08:37:17.571Z,8.10
2023-04-17T08:39:44.738Z,7.30
2023-04-17T08:42:16.531Z,9.65
2023-04-17T08:44:45.832Z,7.85
2023-04-17T08:47:13.014Z,7.72
2023-04-17T08:49:44.004Z,8.27
2023-04-17T08:52:11.347Z,8.35
2023-04-17T08:54:39.163Z,7.68
2023-04-17T08:57:06.193Z,8.55
2023-04-17T08:59:32.945Z,9.63
2023-04-17T09:02:05.350Z,8.40
2023-04-17T09:04:37.944Z,10.55
2023-04-17T09:07:05.909Z,8.07
2023-04-17T09:09:54.285Z,8.60
2023-04-17T09:12:24.793Z,10.07
2023-04-17T09:14:51.644Z,10.80
2023-04-17T09:17:19.277Z,10.27
2023-04-17T09:20:01.189Z,13.20
2023-04-17T09:22:27.972Z,12.95
2023-04-17T09:24:56.741Z,12.63
2023-04-17T09:27:28.624Z,11.85
2023-04-17T09:30:05.981Z,15.35
2023-04-17T09:32:34.230Z,16.13
2023-04-17T09:35:01.833Z,17.92
2023-04-17T09:37:44.725Z,16.85
2023-04-17T09:40:14.173Z,16.65
2023-04-17T09:42:59.536Z,19.42
2023-04-17T09:45:27.330Z,17.13
2023-04-17T09:47:56.394Z,18.08
2023-04-17T09:50:24.858Z,19.17
2023-04-17T09:52:52.767Z,16.15
2023-04-17T09:55:21.565Z,15.60
2023-04-17T09:57:53.287Z,13.07
2023-04-17T10:00:20.906Z,17.67
2023-04-17T10:02:52.248Z,16.13
2023-04-17T10:05:19.938Z,16.67
2023-04-17T10:07:46.819Z,16.27
2023-04-17T10:10:22.803Z,15.63
2023-04-17T10:12:50.441Z,15.40
2023-04-17T10:15:17.355Z,13.63
2023-04-17T10:17:47.239Z,14.77
2023-04-17T10:20:17.622Z,14.77
2023-04-17T10:22:45.084Z,12.00
2023-04-17T10:25:17.056Z,13.05
2023-04-17T10:27:46.194Z,10.45
2023-04-17T10:30:13.205Z,10.43
2023-04-17T10:32:42.342Z,11.02
2023-04-17T10:35:17.994Z,9.52
2023-04-17T10:37:51.052Z,11.20
2023-04-17T10:40:21.599Z,11.60
2023-04-17T10:43:23.887Z,10.40
2023-04-17T10:45:59.695Z,11.05
2023-04-17T10:48:44.589Z,9.57
2023-04-17T10:51:20.626Z,11.55
2023-04-17T10:53:48.022Z,15.18
2023-04-17T10:56:18.781Z,15.85
2023-04-17T10:59:15.083Z,12.68
2023-04-17T11:01:50.141Z,13.55
2023-04-17T11:04:21.882Z,10.87
2023-04-17T11:06:48.792Z,12.15
2023-04-17T11:09:16.607Z,15.20
2023-04-17T11:11:45.059Z,13.57
2023-04-17T11:14:14.441Z,13.60
2023-04-17T11:16:42.104Z,13.52
2023-04-17T11:19:22.669Z,13.75
2023-04-17T11:21:52.091Z,10.00
2023-04-17T11:24:28.863Z,12.50
2023-04-17T11:26:56.613Z,13.10
2023-04-17T11:29:23.615Z,12.52
2023-04-17T11:31:59.987Z,11.07
2023-04-17T11:34:27.171Z,10.68
2023-04-17T11:36:56.108Z,14.82
2023-04-17T11:39:27.931Z,12.93
2023-04-17T11:42:00.068Z,11.13
2023-04-17T11:44:28.564Z,10.30
2023-04-17T11:46:56.177Z,11.60
2023-04-17T11:49:26.514Z,11.73
2023-04-17T11:51:59.309Z,16.10
2023-04-17T11:54:29.819Z,13.18
2023-04-17T11:57:00.264Z,12.25
2023-04-17T11:59:37.357Z,10.80
2023-04-17T12:02:07.492Z,12.80
2023-04-17T12:04:35.244Z,12.82
2023-04-17T12:07:07.266Z,12.32
2023-04-17T12:09:34.256Z,14.27
2023-04-17T12:12:02.716Z,14.30
2023-04-17T12:14:29.594Z,11.15
2023-04-17T12:16:56.123Z,14.52
2023-04-17T12:19:22.577Z,10.40
2023-04-17T12:21:49.448Z,14.68
2023-04-17T12:24:19.123Z,14.90
2023-04-17T12:26:46.825Z,16.17
2023-04-17T12:29:17.826Z,13.00
2023-04-17T12:31:46.136Z,9.82
2023-04-17T12:34:12.841Z,10.27
2023-04-17T12:36:41.520Z,10.05
2023-04-17T12:39:07.993Z,9.85
2023-04-17T12:41:36.554Z,12.07
2023-04-17T12:44:05.781Z,10.15
2023-04-17T12:46:32.339Z,17.20
2023-04-17T12:49:00.210Z,21.13
2023-04-17T12:51:27.930Z,9.32
2023-04-17T12:53:58.109Z,12.60
2023-04-17T12:56:26.357Z,14.50
2023-04-17T12:58:52.948Z,10.65
2023-04-17T13:01:19.498Z,10.63
2023-04-17T13:03:46.868Z,13.32
2023-04-17T13:06:13.694Z,12.45
2023-04-17T13:08:41.040Z,13.95
2023-04-17T13:11:10.967Z,11.38
2023-04-17T13:13:37.381Z,12.95
2023-04-17T13:16:04.118Z,11.20
2023-04-17T13:18:31.172Z,10.18
2023-04-17T13:20:58.007Z,16.17
2023-04-17T13:23:24.397Z,11.63
2023-04-17T13:25:51.603Z,11.65
2023-04-17T13:28:18.542Z,15.70
2023-04-17T13:30:46.932Z,14.63
2023-04-17T13:33:14.289Z,13.38
2023-04-17T13:35:42.560Z,13.73
2023-04-17T13:38:09.015Z,14.57
2023-04-17T13:40:38.531Z,16.27
2023-04-17T13:43:06.214Z,16.13
2023-04-17T13:45:36.198Z,17.02
2023-04-17T13:48:02.803Z,17.38
2023-04-17T13:50:29.970Z,14.18
2023-04-17T13:52:56.432Z,20.55
2023-04-17T13:55:23.697Z,16.75
2023-04-17T13:57:51.159Z,17.13
2023-04-17T14:00:18.819Z,18.20
2023-04-17T14:02:45.529Z,17.27
2023-04-17T14:05:13.371Z,17.33
2023-04-17T14:07:39.986Z,15.15
2023-04-17T14:10:10.134Z,15.82
2023-04-17T14:12:37.179Z,23.42
2023-04-17T14:15:04.488Z,16.30
2023-04-17T14:17:32.521Z,16.55
2023-04-17T14:20:00.301Z,15.70
2023-04-17T14:22:29.682Z,19.70
2023-04-17T14:24:56.403Z,18.85
2023-04-17T14:27:22.906Z,19.65
2023-04-17T14:29:49.619Z,19.42
2023-04-17T14:32:16.060Z,20.15
2023-04-17T14:34:44.683Z,15.00
2023-04-17T14:37:11.129Z,16.50
2023-04-17T14:39:39.193Z,15.45
2023-04-17T14:42:05.776Z,15.77
2023-04-17T14:44:32.323Z,18.65
2023-04-17T14:46:59.804Z,17.80
2023-04-17T14:49:27.093Z,16.25
2023-04-17T14:51:54.093Z,14.13
2023-04-17T14:54:22.693Z,17.38
2023-04-17T14:56:50.309Z,18.30
2023-04-17T14:59:17.389Z,21.63
2023-04-17T15:01:43.840Z,15.68
2023-04-17T15:04:11.503Z,19.77
2023-04-17T15:06:39.209Z,20.40
2023-04-17T15:09:07.343Z,22.98
2023-04-17T15:11:33.892Z,18.02
2023-04-17T15:14:00.826Z,18.65
2023-04-17T15:16:27.388Z,21.55
2023-04-17T15:18:56.226Z,20.85
2023-04-17T15:21:22.740Z,21.23
2023-04-17T15:23:49.539Z,19.88
2023-04-17T15:26:16.086Z,24.17
2023-04-17T15:28:42.888Z,21.83
2023-04-17T15:31:11.260Z,19.67
2023-04-17T15:33:39.533Z,20.25
2023-04-17T15:36:06.026Z,16.88
2023-04-17T15:38:32.729Z,19.35
2023-04-17T15:40:59.425Z,21.83
2023-04-17T15:43:26.240Z,17.17
2023-04-17T15:45:52.995Z,17.55
2023-04-17T15:48:19.426Z,21.45
2023-04-17T15:50:46.254Z,19.50
2023-04-17T15:53:15.575Z,15.55
2023-04-17T15:55:42.077Z,16.58
2023-04-17T15:58:09.948Z,17.90
2023-04-17T16:00:38.144Z,20.33
2023-04-17T16:03:07.946Z,18.35
2023-04-17T16:05:35.138Z,18.80
2023-04-17T16:08:01.698Z,16.80
2023-04-17T16:10:28.203Z,16.35
2023-04-17T16:12:54.757Z,22.30
2023-04-17T16:15:21.575Z,17.63
2023-04-17T16:17:50.824Z,18.67
2023-04-17T16:20:17.723Z,17.30
2023-04-17T16:22:44.522Z,21.00
2023-04-17T16:25:13.679Z,22.63
2023-04-17T16:27:40.656Z,20.95
2023-04-17T16:30:08.177Z,20.85
2023-04-17T16:32:34.826Z,19.25
2023-04-17T16:35:01.370Z,22.23
2023-04-17T16:37:28.126Z,18.63
2023-04-17T16:39:55.007Z,19.52
2023-04-17T16:42:21.564Z,18.15
2023-04-17T16:44:48.416Z,18.02
2023-04-17T16:47:15.184Z,23.38
2023-04-17T16:49:44.436Z,24.25
2023-04-17T16:52:11.283Z,22.25
2023-04-17T16:54:38.188Z,23.30
2023-04-17T16:57:05.896Z,22.33
2023-04-17T16:59:34.194Z,23.98
2023-04-17T17:02:03.982Z,21.63
2023-04-17T17:04:31.610Z,25.50
2023-04-17T17:06:58.215Z,20.35
2023-04-17T17:09:25.461Z,21.33
2023-04-17T17:11:51.888Z,25.25
2023-04-17T17:14:18.937Z,26.23
2023-04-17T17:16:46.174Z,26.13
2023-04-17T17:19:12.998Z,22.95
2023-04-17T17:21:41.135Z,20.67
2023-04-17T17:24:07.596Z,26.60
2023-04-17T17:26:34.605Z,26.60
2023-04-17T17:29:02.462Z,24.85
2023-04-17T17:31:30.816Z,25.90
2023-04-17T17:34:11.949Z,28.73
2023-04-17T17:36:49.198Z,26.95
2023-04-17T17:39:15.686Z,22.08
2023-04-17T17:41:43.910Z,24.98
2023-04-17T17:44:12.588Z,23.60
2023-04-17T17:46:39.541Z,24.38
2023-04-17T17:49:05.994Z,19.30
2023-04-17T17:51:33.160Z,20.52
2023-04-17T17:53:59.617Z,24.73
2023-04-17T17:56:26.553Z,24.55
2023-04-17T17:58:53.239Z,20.17
2023-04-17T18:01:19.837Z,24.50
2023-04-17T18:03:49.406Z,20.63
2023-04-17T18:06:17.987Z,17.08
2023-04-17T18:08:44.462Z,19.85
2023-04-17T18:11:13.828Z,16.95
2023-04-17T18:13:40.449Z,15.65
2023-04-17T18:16:07.576Z,17.35
2023-04-17T18:18:34.396Z,18.00
2023-04-17T18:21:05.821Z,16.15
2023-04-17T18:23:33.610Z,17.80
2023-04-17T18:26:01.317Z,16.80
2023-04-17T18:28:28.430Z,17.38
2023-04-17T18:30:55.040Z,17.38
2023-04-17T18:33:22.222Z,15.27
2023-04-17T18:35:49.270Z,20.52
2023-04-17T18:38:16.819Z,17.38
2023-04-17T18:40:43.840Z,17.17
2023-04-17T18:43:11.618Z,13.52
2023-04-17T18:45:38.123Z,18.73
2023-04-17T18:48:08.378Z,13.45
2023-04-17T18:50:34.888Z,12.20
2023-04-17T18:53:04.557Z,14.13
2023-04-17T18:55:32.253Z,11.50
2023-04-17T18:58:01.894Z,11.68
2023-04-17T19:00:28.363Z,9.90
2023-04-17T19:02:56.481Z,12.02
2023-04-17T19:05:23.157Z,11.43
2023-04-17T19:07:51.179Z,11.50
2023-04-17T19:10:18.204Z,9.98
2023-04-17T19:12:44.677Z,9.95
2023-04-17T19:15:11.725Z,11.02
2023-04-17T19:17:38.873Z,10.50
2023-04-17T19:20:06.243Z,11.35
2023-04-17T19:22:32.652Z,15.40
2023-04-17T19:25:00.899Z,12.30
2023-04-17T19:27:27.446Z,13.30
2023-04-17T19:29:53.997Z,13.65
2023-04-17T19:32:20.498Z,11.40
2023-04-17T19:34:47.808Z,13.20
2023-04-17T19:37:14.890Z,12.52
2023-04-17T19:39:41.715Z,11.77
2023-04-17T19:42:08.281Z,12.85
2023-04-17T19:44:36.043Z,11.02
2023-04-17T19:47:02.847Z,12.32
2023-04-17T19:49:31.354Z,12.05
2023-04-17T19:51:59.336Z,11.30
2023-04-17T19:54:26.708Z,11.20
2023-04-17T19:56:53.245Z,13.05
2023-04-17T19:59:20.473Z,13.07
2023-04-17T20:01:47.029Z,15.35
2023-04-17T20:04:13.764Z,12.10
2023-04-17T20:06:41.047Z,10.70
2023-04-17T20:09:07.996Z,11.25
2023-04-17T20:11:34.578Z,11.75
2023-04-17T20:14:01.156Z,11.25
2023-04-17T20:16:27.653Z,10.18
2023-04-17T20:18:56.470Z,9.55
2023-04-17T20:21:23.706Z,10.82
2023-04-17T20:23:50.717Z,12.68
2023-04-17T20:26:17.392Z,9.40
2023-04-17T20:28:44.363Z,8.85
2023-04-17T20:31:11.268Z,10.38
2023-04-17T20:33:38.096Z,11.13
2023-04-17T20:36:05.388Z,10.52
2023-04-17T20:38:31.937Z,10.88
2023-04-17T20:40:58.485Z,11.85
2023-04-17T20:43:25.056Z,10.73
2023-04-17T20:45:53.433Z,10.35
2023-04-17T20:48:20.111Z,10.73
2023-04-17T20:50:46.961Z,9.20
2023-04-17T20:53:13.456Z,11.95
2023-04-17T20:55:40.034Z,10.63
2023-04-17T20:58:06.539Z,11.23
2023-04-17T21:00:34.762Z,8.55
2023-04-17T21:03:01.317Z,9.30
2023-04-17T21:05:27.996Z,10.63
2023-04-17T21:07:54.566Z,8.98
2023-04-17T21:10:21.477Z,9.70
2023-04-17T21:12:48.163Z,10.52
2023-04-17T21:15:15.546Z,11.90
2023-04-17T21:17:46.662Z,11.48
2023-04-17T21:20:13.594Z,11.90
2023-04-17T21:22:40.291Z,13.10
2023-04-17T21:25:07.207Z,12.82
2023-04-17T21:27:34.145Z,13.05
2023-04-17T21:30:00.706Z,10.68
2023-04-17T21:32:27.457Z,12.20
2023-04-17T21:34:54.054Z,12.80
2023-04-17T21:37:20.834Z,12.68
2023-04-17T21:39:48.312Z,14.45
2023-04-17T21:42:14.945Z,13.45
2023-04-17T21:44:41.633Z,14.32
2023-04-17T21:47:08.206Z,11.20
2023-04-17T21:49:34.760Z,14.85
2023-04-17T21:52:01.323Z,17.25
2023-04-17T21:54:27.814Z,16.55
2023-04-17T21:56:54.349Z,18.45
2023-04-17T21:59:21.218Z,13.73
2023-04-17T22:01:47.786Z,16.90
2023-04-17T22:04:14.643Z,16.83
2023-04-17T22:06:41.736Z,22.10
2023-04-17T22:09:09.037Z,16.88
2023-04-17T22:11:37.672Z,17.42
2023-04-17T22:14:04.147Z,19.77
2023-04-17T22:16:30.942Z,18.95
2023-04-17T22:18:57.546Z,18.52
2023-04-17T22:21:24.137Z,23.25
2023-04-17T22:23:50.829Z,19.10
2023-04-17T22:26:17.319Z,23.90
2023-04-17T22:28:44.006Z,24.77
2023-04-17T22:31:10.979Z,24.42
2023-04-17T22:33:37.895Z,26.10
2023-04-17T22:36:04.454Z,22.38
2023-04-17T22:38:31.232Z,31.90
2023-04-17T22:40:57.676Z,25.38
2023-04-17T22:43:24.420Z,27.45
2023-04-17T22:45:50.971Z,28.95
2023-04-17T22:48:18.301Z,30.25
2023-04-17T22:50:45.572Z,32.85
2023-04-17T22:53:12.197Z,29.70
2023-04-17T22:55:38.938Z,29.35
2023-04-17T22:58:05.772Z,34.95
2023-04-17T23:00:32.568Z,31.67
2023-04-17T23:02:59.206Z,31.17
2023-04-17T23:05:25.874Z,36.40
2023-04-17T23:07:52.654Z,33.72
2023-04-17T23:10:19.951Z,32.88
2023-04-17T23:12:46.578Z,36.33
2023-04-17T23:15:13.333Z,33.05
2023-04-17T23:17:40.020Z,41.75
2023-04-17T23:20:06.827Z,37.05
2023-04-17T23:22:33.451Z,35.17
2023-04-17T23:25:00.147Z,39.47
2023-04-17T23:27:26.754Z,40.13
2023-04-17T23:29:54.398Z,39.08
2023-04-17T23:32:21.249Z,40.40
2023-04-17T23:34:47.726Z,46.53
2023-04-17T23:37:14.301Z,38.50
2023-04-17T23:39:41.071Z,44.55
2023-04-17T23:42:08.049Z,41.67
2023-04-17T23:44:34.786Z,39.50
2023-04-17T23:47:02.117Z,37.03
2023-04-17T23:49:28.782Z,38.88
2023-04-17T23:51:55.559Z,40.38
2023-04-17T23:54:22.088Z,39.15
2023-04-17T23:56:48.762Z,40.28
2023-04-17T23:59:15.261Z,35.53
